Flight Track Log - Related Links

Times and Time Zones

All times are in EDT time to prevent confusion due to time zone crossing. See the JA-8256 flight status page for this flight to view local times or setup timezone preferences in your user account.

Time Position Orientation Groundspeed Altitude Reporting Facility
EDT Latitude Longitude Course Direction KTS MPH feet Rate Location/Type
Tue 03:35:32 AM 26.2486 127.6644 18° North  Level Estimated
Tue 03:36:32 AM 26.3475 127.6993 18° North  Level Estimated
Tue 03:37:32 AM 26.4463 127.7342 18° North  Level Estimated
Tue 03:38:32 AM 26.5452 127.7692 18° North  Level Estimated
Tue 03:39:32 AM 26.6441 127.8043 18° North  Level Estimated
Tue 03:40:32 AM 26.7429 127.8394 18° North  Level Estimated
Tue 03:41:32 AM 26.8418 127.8745 18° North  Level Estimated
Tue 03:42:32 AM 26.9406 127.9098 18° North  Level Estimated
Tue 03:43:32 AM 27.0394 127.9450 18° North  Level Estimated
Tue 03:44:32 AM 27.1383 127.9804 18° North  Level Estimated
Tue 03:45:32 AM 27.2371 128.0158 18° North  Level Estimated
Tue 03:46:32 AM 27.3359 128.0513 18° North  Level Estimated
Tue 03:47:32 AM 27.4347 128.0868 18° North  Level Estimated
Tue 03:48:32 AM 27.5334 128.1224 18° North  Level Estimated
Tue 03:49:32 AM 27.6322 128.1581 18° North  Level Estimated
Tue 03:50:32 AM 27.7310 128.1938 18° North  Level Estimated
Tue 03:51:32 AM 27.8297 128.2296 18° North  Level Estimated
Tue 03:52:32 AM 27.9285 128.2655 18° North  Level Estimated
Tue 03:53:32 AM 28.0272 128.3014 18° North  Level Estimated
Tue 03:54:32 AM 28.1259 128.3374 18° North  Level Estimated
Tue 03:55:32 AM 28.2247 128.3735 18° North  Level Estimated
Tue 03:56:32 AM 28.3234 128.4096 18° North  Level Estimated
Tue 03:57:32 AM 28.4221 128.4458 18° North  Level Estimated
Tue 03:58:32 AM 28.5208 128.4820 18° North  Level Estimated
Tue 03:59:32 AM 28.6194 128.5184 18° North  Level Estimated
Tue 04:00:32 AM 28.7181 128.5547 18° North  Level Estimated
Tue 04:01:32 AM 28.8168 128.5912 18° North  Level Estimated
Tue 04:02:32 AM 28.9154 128.6277 18° North  Level Estimated
Tue 04:03:32 AM 29.0141 128.6644 18° North  Level Estimated
Tue 04:04:32 AM 29.1127 128.7010 18° North  Level Estimated
Tue 04:05:32 AM 29.2113 128.7378 18° North  Level Estimated
Tue 04:06:32 AM 29.3099 128.7746 18° North  Level Estimated
Tue 04:07:32 AM 29.4085 128.8115 18° North  Level Estimated
Tue 04:08:32 AM 29.5071 128.8484 18° North  Level Estimated
Tue 04:09:32 AM 29.6057 128.8855 18° North  Level Estimated
Tue 04:10:32 AM 29.7043 128.9226 18° North  Level Estimated
Tue 04:11:32 AM 29.8028 128.9597 18° North  Level Estimated
Tue 04:12:32 AM 29.9014 128.9970 18° North  Level Estimated
Tue 04:13:32 AM 29.9999 129.0343 18° North  Level Estimated
Tue 04:14:32 AM 30.0984 129.0717 18° North  Level Estimated
Tue 04:15:32 AM 30.1970 129.1092 18° North  Level Estimated
Tue 04:16:32 AM 30.2955 129.1467 18° North  Level Estimated
Tue 04:17:32 AM 30.3940 129.1844 18° North  Level Estimated
Tue 04:18:32 AM 30.4925 129.2221 18° North  Level Estimated
Tue 04:19:32 AM 30.5909 129.2599 18° North  Level Estimated
Tue 04:20:32 AM 30.6894 129.2977 18° North  Level Estimated
Tue 04:21:32 AM 30.7878 129.3356 18° North  Level Estimated
Tue 04:22:32 AM 30.8863 129.3737 18° North  Level Estimated
Tue 04:23:32 AM 30.9847 129.4117 18° North  Level Estimated
Tue 04:24:32 AM 31.0831 129.4499 18° North  Level Estimated
Tue 04:25:32 AM 31.1815 129.4881 18° North  Level Estimated
Tue 04:26:32 AM 31.2799 129.5265 18° North  Level Estimated
Tue 04:27:32 AM 31.3783 129.5649 18° North  Level Estimated
Tue 04:28:32 AM 31.4767 129.6034 18° North  Level Estimated
Tue 04:29:32 AM 31.5751 129.6419 18° North  Level Estimated
Tue 04:30:32 AM 31.6734 129.6806 19° North  Level Estimated
Tue 04:31:32 AM 31.7717 129.7193 19° North  Level Estimated
Tue 04:32:32 AM 31.8701 129.7581 19° North  Level Estimated
Tue 04:33:32 AM 31.9684 129.7970 19° North  Level Estimated
Tue 04:34:32 AM 32.0667 129.8360 19° North  Level Estimated
Tue 04:35:32 AM 32.1650 129.8750 19° North  Level Estimated
Tue 04:36:32 AM 32.2633 129.9142 19° North  Level Estimated
Tue 04:37:32 AM 32.3615 129.9534 19° North  Level Estimated
Tue 04:38:32 AM 32.4598 129.9927 19° North  Level Estimated
Tue 04:39:32 AM 32.5580 130.0321 19° North  Level Estimated
Tue 04:40:32 AM 32.6563 130.0716 19° North  Level Estimated
Tue 04:41:32 AM 32.7545 130.1112 19° North  Level Estimated
Tue 04:42:32 AM 32.8527 130.1508 19° North  Level Estimated
Tue 04:43:32 AM 32.9509 130.1906 19° North  Level Estimated
Tue 04:44:32 AM 33.0491 130.2304 19° North  Level Estimated
Tue 04:45:32 AM 33.1472 130.2703 19° North  Level Estimated
Tue 04:46:32 AM 33.2454 130.3103 19° North  Level Estimated
Tue 04:47:32 AM 33.3435 130.3504 19° North  Level Estimated
Tue 04:48:32 AM 33.4417 130.3906 19° North  Level Estimated
Tue 04:49:32 AM 33.5398 130.4309 19° North  Level Estimated
Tue 04:50:32 AM 33.6379 130.4713 199° South  Level Estimated
Tue 04:51:32 AM 33.5398 130.4309 19° North  Level Estimated
Tue 04:52:32 AM 33.6379 130.4713 199° South  Level Estimated
Tue 04:53:32 AM 33.5398 130.4309 19° North  Level Estimated
Tue 04:54:32 AM 33.6379 130.4713 199° South  Level Estimated
Tue 04:55:32 AM 33.5398 130.4309 19° North  Level Estimated
Tue 04:56:32 AM 33.6379 130.4713 199° South  Level Estimated
Tue 04:57:32 AM 33.5398 130.4309 19° North  Level Estimated
Tue 04:58:32 AM 33.6379 130.4713 199° South  Level Estimated
Tue 04:59:32 AM 33.5398 130.4309 199° South  Level Estimated

Login

Don't have an account? Register now (free) for customized features, flight alerts, and more!